createdAt,value
2023-03-08T00:03:59.754Z,20.39794921875
2023-03-08T00:13:59.658Z,19.7998046875
2023-03-08T00:23:59.537Z,19.7998046875
2023-03-08T00:34:00.014Z,19.9951171875
2023-03-08T00:43:59.520Z,19.9951171875
2023-03-08T00:53:59.378Z,19.9951171875
2023-03-08T01:03:59.518Z,19.9951171875
2023-03-08T01:13:59.361Z,19.8974609375
2023-03-08T01:23:59.211Z,19.8974609375
2023-03-08T01:33:59.033Z,19.6044921875
2023-03-08T01:43:58.933Z,19.8974609375
2023-03-08T01:53:58.916Z,20.10498046875
2023-03-08T02:03:59.008Z,20.39794921875
2023-03-08T02:13:58.731Z,20.60546875
2023-03-08T02:23:58.655Z,20.99609375
2023-03-08T02:33:58.723Z,20.39794921875
2023-03-08T02:43:58.499Z,21.39892578125
2023-03-08T02:53:58.573Z,22.59521484375
2023-03-08T03:03:58.429Z,22.0947265625
2023-03-08T03:13:58.589Z,21.8017578125
2023-03-08T03:23:59.967Z,21.20361328125
2023-03-08T03:33:58.130Z,21.30126953125
2023-03-08T03:43:58.403Z,21.9970703125
2023-03-08T03:53:58.060Z,22.0947265625
2023-03-08T04:03:57.982Z,21.9970703125
2023-03-08T04:13:57.849Z,21.30126953125
2023-03-08T04:24:00.436Z,20.8984375
2023-03-08T04:33:57.783Z,20.8984375
2023-03-08T04:43:57.650Z,20.99609375
2023-03-08T04:53:57.696Z,20.80078125
2023-03-08T05:03:57.552Z,20.49560546875
2023-03-08T05:13:57.420Z,20.49560546875
2023-03-08T05:23:57.325Z,20.49560546875
2023-03-08T05:33:57.381Z,20.20263671875
2023-03-08T05:43:57.330Z,20.20263671875
2023-03-08T05:53:57.141Z,19.9951171875
2023-03-08T06:03:57.087Z,19.9951171875
2023-03-08T06:13:57.040Z,19.8974609375
2023-03-08T06:23:57.081Z,19.7021484375
2023-03-08T06:33:58.605Z,19.6044921875
2023-03-08T06:43:56.954Z,19.6044921875
2023-03-08T06:53:56.698Z,19.39697265625
2023-03-08T07:03:56.714Z,19.39697265625
2023-03-08T07:13:57.210Z,19.29931640625
2023-03-08T07:23:57.843Z,19.39697265625
2023-03-08T07:33:58.120Z,19.29931640625
2023-03-08T07:43:57.383Z,19.29931640625
2023-03-08T07:53:56.218Z,19.29931640625
2023-03-08T08:03:56.145Z,19.29931640625
2023-03-08T08:13:56.159Z,19.20166015625
2023-03-08T08:23:56.061Z,19.20166015625
2023-03-08T08:33:55.958Z,19.20166015625
2023-03-08T08:43:55.938Z,19.20166015625
2023-03-08T08:53:55.860Z,19.20166015625
2023-03-08T09:03:55.857Z,18.994140625
2023-03-08T09:13:55.716Z,19.10400390625
2023-03-08T09:23:56.654Z,18.994140625
2023-03-08T09:33:55.535Z,19.10400390625
2023-03-08T09:43:55.398Z,19.10400390625
2023-03-08T09:53:55.414Z,19.20166015625
2023-03-08T10:03:55.314Z,19.10400390625
2023-03-08T10:13:55.668Z,19.10400390625
2023-03-08T10:23:55.316Z,19.10400390625
2023-03-08T10:33:56.954Z,19.10400390625
2023-03-08T10:43:55.159Z,19.10400390625
2023-03-08T10:53:54.923Z,19.20166015625
2023-03-08T11:03:54.857Z,19.10400390625
2023-03-08T11:13:54.813Z,18.994140625
2023-03-08T11:23:54.736Z,18.994140625
2023-03-08T11:33:54.800Z,19.10400390625
2023-03-08T11:43:54.848Z,19.10400390625
2023-03-08T11:53:54.428Z,19.10400390625
2023-03-08T12:03:54.558Z,19.10400390625
2023-03-08T12:13:54.382Z,19.10400390625
2023-03-08T12:23:54.434Z,19.10400390625
2023-03-08T12:33:54.232Z,19.10400390625
2023-03-08T12:43:55.489Z,19.10400390625
2023-03-08T12:53:55.801Z,19.10400390625
2023-03-08T13:03:54.145Z,18.994140625
2023-03-08T13:13:53.911Z,18.994140625
2023-03-08T13:23:53.860Z,18.994140625
2023-03-08T13:33:53.761Z,18.994140625
2023-03-08T13:43:53.684Z,18.994140625
2023-03-08T13:53:53.724Z,18.994140625
2023-03-08T14:03:53.584Z,18.896484375
2023-03-08T14:13:53.619Z,18.994140625
2023-03-08T14:23:53.439Z,18.994140625
2023-03-08T14:33:53.301Z,18.994140625
2023-03-08T14:43:53.523Z,18.994140625
2023-03-08T14:53:53.085Z,18.994140625
2023-03-08T15:03:53.148Z,18.994140625
2023-03-08T15:13:53.032Z,18.994140625
2023-03-08T15:23:52.881Z,18.994140625
2023-03-08T15:33:52.827Z,19.10400390625
2023-03-08T15:43:53.247Z,19.10400390625
2023-03-08T15:53:52.698Z,19.10400390625
2023-03-08T16:03:54.091Z,18.896484375
2023-03-08T16:13:52.562Z,18.896484375
2023-03-08T16:23:52.429Z,18.994140625
2023-03-08T16:33:52.470Z,18.994140625
2023-03-08T16:43:52.334Z,19.10400390625
2023-03-08T16:53:52.216Z,19.10400390625
2023-03-08T17:03:53.938Z,19.10400390625
2023-03-08T17:13:52.145Z,19.10400390625
2023-03-08T17:23:52.789Z,19.10400390625
2023-03-08T17:33:51.934Z,19.10400390625
2023-03-08T17:43:51.922Z,19.10400390625
2023-03-08T17:53:51.943Z,19.10400390625
2023-03-08T18:03:51.744Z,18.994140625
2023-03-08T18:13:51.645Z,19.10400390625
2023-03-08T18:23:51.552Z,19.10400390625
2023-03-08T18:33:53.621Z,19.10400390625
2023-03-08T18:43:53.895Z,19.10400390625
2023-03-08T18:53:51.388Z,19.20166015625
2023-03-08T19:03:53.056Z,19.29931640625
2023-03-08T19:13:51.227Z,19.29931640625
2023-03-08T19:23:51.091Z,19.29931640625
2023-03-08T19:33:51.034Z,19.29931640625
2023-03-08T19:43:51.044Z,19.29931640625
2023-03-08T19:53:50.976Z,19.49462890625
2023-03-08T20:03:50.835Z,19.39697265625
2023-03-08T20:13:50.825Z,19.49462890625
2023-03-08T20:23:50.847Z,19.39697265625
2023-03-08T20:33:50.609Z,19.29931640625
2023-03-08T20:43:50.542Z,19.49462890625
2023-03-08T20:53:51.167Z,19.39697265625
2023-03-08T21:03:50.402Z,19.39697265625
2023-03-08T21:13:51.068Z,19.39697265625
2023-03-08T21:23:50.274Z,19.39697265625
2023-03-08T21:33:50.265Z,19.39697265625
2023-03-08T21:43:50.807Z,19.6044921875
2023-03-08T21:53:50.015Z,19.7021484375
2023-03-08T22:03:50.055Z,20.10498046875
2023-03-08T22:13:49.893Z,20.10498046875
2023-03-08T22:23:51.521Z,20.10498046875
2023-03-08T22:33:49.739Z,20.10498046875
2023-03-08T22:43:49.729Z,20.10498046875
2023-03-08T22:53:49.679Z,19.9951171875
2023-03-08T23:03:49.677Z,20.39794921875
2023-03-08T23:13:49.532Z,20.39794921875
2023-03-08T23:23:49.889Z,20.20263671875
2023-03-08T23:33:49.380Z,19.8974609375
2023-03-08T23:43:50.048Z,19.8974609375
2023-03-08T23:53:49.237Z,20.39794921875
